Terminal Aerodrome Forecast
Issued by NWS

Home | Current Version | Previous Version | Text Only | Print | Product List | Glossary On
Versions: 1 2 3 4 5 6 7 8 9 10 11 12 13 14 15 16 17 18 19 20 21 22 23 24
000
FTUS43 KLOT 211743
TAFORD
TAF
KORD 211743Z 2118/2224 18014G24KT P6SM FEW120 SCT250
     FM220000 17012KT P6SM FEW040 BKN060
     FM221300 17014G22KT P6SM VCSH SCT020 BKN040
      TEMPO 2215/2219 4SM -SHRA BKN020
     FM221900 21011G16KT 6SM -SHRA OVC020=

USA.gov is the U.S. government's official web portal to all federal, state and local government web resources and services.